createdAt,value
2022-09-03T00:00:03.545Z,0.00
2022-09-03T00:01:03.544Z,0.00
2022-09-03T00:02:03.569Z,0.00
2022-09-03T00:03:03.563Z,0.00
2022-09-03T00:04:03.504Z,0.00
2022-09-03T00:05:03.495Z,0.00
2022-09-03T00:06:03.481Z,0.00
2022-09-03T00:07:03.476Z,0.00
2022-09-03T00:08:03.471Z,0.00
2022-09-03T00:09:03.458Z,0.00
2022-09-03T00:10:03.429Z,0.00
2022-09-03T00:11:03.431Z,0.00
2022-09-03T00:12:03.425Z,0.00
2022-09-03T00:13:03.408Z,0.00
2022-09-03T00:14:03.387Z,0.00
2022-09-03T00:15:03.378Z,0.00
2022-09-03T00:16:03.417Z,0.00
2022-09-03T00:17:03.360Z,0.00
2022-09-03T00:18:03.369Z,0.00
2022-09-03T00:19:03.351Z,0.00
2022-09-03T00:20:03.339Z,0.00
2022-09-03T00:21:03.318Z,0.00
2022-09-03T00:22:03.300Z,0.00
2022-09-03T00:23:03.289Z,0.00
2022-09-03T00:24:03.269Z,0.00
2022-09-03T00:25:03.278Z,0.00
2022-09-03T00:26:03.251Z,0.00
2022-09-03T00:27:03.240Z,0.00
2022-09-03T00:28:03.250Z,0.00
2022-09-03T00:29:03.212Z,0.00
2022-09-03T00:30:03.201Z,0.00
2022-09-03T00:31:03.306Z,0.00
2022-09-03T00:32:03.180Z,0.00
2022-09-03T00:33:03.182Z,0.00
2022-09-03T00:34:03.171Z,0.00
2022-09-03T00:35:03.150Z,0.00
2022-09-03T00:36:03.131Z,0.00
2022-09-03T00:37:03.122Z,0.00
2022-09-03T00:38:03.144Z,0.00
2022-09-03T00:39:03.094Z,0.00
2022-09-03T00:40:03.181Z,0.00
2022-09-03T00:41:03.074Z,0.00
2022-09-03T00:42:03.083Z,0.00
2022-09-03T00:43:03.062Z,0.00
2022-09-03T00:44:03.069Z,0.00
2022-09-03T00:45:03.032Z,0.00
2022-09-03T00:46:03.086Z,0.00
2022-09-03T00:47:03.005Z,0.00
2022-09-03T00:48:03.033Z,0.00
2022-09-03T00:49:02.986Z,0.00
2022-09-03T00:50:02.974Z,0.00
2022-09-03T00:51:02.967Z,0.00
2022-09-03T00:52:02.977Z,0.00
2022-09-03T00:53:02.934Z,0.00
2022-09-03T00:54:02.950Z,0.00
2022-09-03T00:55:02.915Z,0.00
2022-09-03T00:56:02.906Z,0.00
2022-09-03T00:57:02.907Z,0.00
2022-09-03T00:58:02.895Z,0.00
2022-09-03T00:59:02.881Z,0.00
2022-09-03T01:00:02.856Z,0.00
2022-09-03T01:01:02.846Z,0.00
2022-09-03T01:02:02.966Z,0.00
2022-09-03T01:03:02.840Z,0.00
2022-09-03T01:04:02.826Z,0.00
2022-09-03T01:05:02.808Z,0.00
2022-09-03T01:06:02.790Z,0.00
2022-09-03T01:07:02.777Z,0.00
2022-09-03T01:08:02.797Z,0.00
2022-09-03T01:09:02.765Z,0.00
2022-09-03T01:10:02.749Z,0.00
2022-09-03T01:11:02.748Z,0.00
2022-09-03T01:12:02.720Z,0.00
2022-09-03T01:13:02.720Z,0.00
2022-09-03T01:14:02.721Z,0.00
2022-09-03T01:15:02.711Z,0.00
2022-09-03T01:16:02.701Z,0.00
2022-09-03T01:17:02.670Z,0.00
2022-09-03T01:18:02.680Z,0.00
2022-09-03T01:19:02.692Z,0.00
2022-09-03T01:20:02.639Z,0.00
2022-09-03T01:21:02.639Z,0.00
2022-09-03T01:22:02.620Z,0.00
2022-09-03T01:23:02.630Z,0.00
2022-09-03T01:24:02.605Z,0.00
2022-09-03T01:25:02.591Z,0.00
2022-09-03T01:26:02.570Z,0.00
2022-09-03T01:27:02.583Z,0.00
2022-09-03T01:28:02.552Z,0.00
2022-09-03T01:29:02.550Z,0.00
2022-09-03T01:30:02.534Z,0.00
2022-09-03T01:31:02.553Z,0.00
2022-09-03T01:32:02.529Z,0.00
2022-09-03T01:33:02.494Z,0.00
2022-09-03T01:34:02.493Z,0.00
2022-09-03T01:35:02.495Z,0.00
2022-09-03T01:36:02.473Z,0.00
2022-09-03T01:37:02.450Z,0.00
2022-09-03T01:38:02.466Z,0.00
2022-09-03T01:39:02.436Z,0.00
2022-09-03T01:40:02.492Z,0.00
2022-09-03T01:41:02.414Z,0.00
2022-09-03T01:42:02.412Z,0.00
2022-09-03T01:43:02.407Z,0.00
2022-09-03T01:44:02.384Z,0.00
2022-09-03T01:45:02.364Z,0.00
2022-09-03T01:46:02.420Z,0.00
2022-09-03T01:47:02.357Z,0.00
2022-09-03T01:48:02.348Z,0.00
2022-09-03T01:49:02.321Z,0.00
2022-09-03T01:50:02.316Z,0.00
2022-09-03T01:51:02.310Z,0.00
2022-09-03T01:52:02.297Z,0.00
2022-09-03T01:53:02.296Z,0.00
2022-09-03T01:54:02.277Z,0.00
2022-09-03T01:55:02.259Z,0.00
2022-09-03T01:56:02.250Z,0.00
2022-09-03T01:57:02.228Z,0.00
2022-09-03T01:58:02.247Z,0.00
2022-09-03T01:59:02.216Z,0.00
2022-09-03T02:00:02.198Z,0.00
2022-09-03T02:01:02.191Z,0.00
2022-09-03T02:02:02.248Z,0.00
2022-09-03T02:03:02.214Z,0.00
2022-09-03T02:04:02.160Z,0.00
2022-09-03T02:05:02.158Z,0.00
2022-09-03T02:06:02.131Z,0.00
2022-09-03T02:07:02.131Z,0.00
2022-09-03T02:08:02.138Z,0.00
2022-09-03T02:09:02.099Z,0.00
2022-09-03T02:10:02.085Z,0.00
2022-09-03T02:11:02.151Z,0.00
2022-09-03T02:12:02.070Z,0.00
2022-09-03T02:13:02.061Z,0.00
2022-09-03T02:14:02.050Z,0.00
2022-09-03T02:15:02.039Z,0.00
2022-09-03T02:16:02.091Z,0.00
2022-09-03T02:17:02.010Z,0.00
2022-09-03T02:18:02.027Z,0.00
2022-09-03T02:19:01.995Z,0.00
2022-09-03T02:20:01.971Z,0.00
2022-09-03T02:21:01.990Z,0.00
2022-09-03T02:22:01.960Z,0.00
2022-09-03T02:23:01.983Z,0.00
2022-09-03T02:24:01.933Z,0.00
2022-09-03T02:25:01.938Z,0.00
2022-09-03T02:26:01.902Z,0.00
2022-09-03T02:27:01.900Z,0.00
2022-09-03T02:28:01.903Z,0.00
2022-09-03T02:29:01.894Z,0.00
2022-09-03T02:30:01.861Z,0.00
2022-09-03T02:31:01.931Z,0.00
2022-09-03T02:32:01.859Z,0.00
2022-09-03T02:33:01.844Z,0.00
2022-09-03T02:34:01.838Z,0.00
2022-09-03T02:35:01.815Z,0.00
2022-09-03T02:36:01.793Z,0.00
2022-09-03T02:37:01.775Z,0.00
2022-09-03T02:38:01.790Z,0.00
2022-09-03T02:39:01.777Z,0.00
2022-09-03T02:40:01.822Z,0.00
2022-09-03T02:41:01.747Z,0.00
2022-09-03T02:42:01.744Z,0.00
2022-09-03T02:43:01.725Z,0.00
2022-09-03T02:44:01.723Z,0.00
2022-09-03T02:45:01.702Z,0.00
2022-09-03T02:46:01.754Z,0.00
2022-09-03T02:47:01.677Z,0.00
2022-09-03T02:48:01.689Z,0.00
2022-09-03T02:49:01.655Z,0.00
2022-09-03T02:50:01.627Z,0.00
2022-09-03T02:51:01.639Z,0.00
2022-09-03T02:52:02.618Z,0.00
2022-09-03T02:53:01.615Z,0.00
2022-09-03T02:54:01.587Z,0.00
2022-09-03T02:55:01.602Z,0.00
2022-09-03T02:56:01.567Z,0.00
2022-09-03T02:57:01.551Z,0.00
2022-09-03T02:58:01.569Z,0.00
2022-09-03T02:59:01.542Z,0.00
2022-09-03T03:00:01.519Z,0.00
2022-09-03T03:01:01.595Z,0.00
2022-09-03T03:02:01.509Z,0.00
2022-09-03T03:03:01.493Z,0.00
2022-09-03T03:04:01.482Z,0.00
2022-09-03T03:05:01.478Z,0.00
2022-09-03T03:06:01.466Z,0.00
2022-09-03T03:07:01.430Z,0.00
2022-09-03T03:08:01.440Z,0.00
2022-09-03T03:09:01.423Z,0.00
2022-09-03T03:10:01.401Z,0.00
2022-09-03T03:11:01.400Z,0.00
2022-09-03T03:12:01.390Z,0.00
2022-09-03T03:13:01.383Z,0.00
2022-09-03T03:14:01.365Z,0.00
2022-09-03T03:15:01.348Z,0.00
2022-09-03T03:16:01.336Z,0.00
2022-09-03T03:17:01.344Z,0.00
2022-09-03T03:18:01.346Z,0.00
2022-09-03T03:19:01.317Z,0.00
2022-09-03T03:20:01.295Z,0.00
2022-09-03T03:21:01.282Z,0.00
2022-09-03T03:22:01.273Z,0.00
2022-09-03T03:23:01.274Z,0.00
2022-09-03T03:24:01.245Z,0.00
2022-09-03T03:25:01.243Z,0.00
2022-09-03T03:26:01.224Z,0.00
2022-09-03T03:27:01.214Z,0.00
2022-09-03T03:28:01.240Z,0.00
2022-09-03T03:29:01.197Z,0.00
2022-09-03T03:30:01.183Z,0.00
2022-09-03T03:31:01.247Z,0.00
2022-09-03T03:32:01.178Z,0.00
2022-09-03T03:33:01.156Z,0.00
2022-09-03T03:34:01.126Z,0.00
2022-09-03T03:35:01.139Z,0.00
2022-09-03T03:36:01.106Z,0.00
2022-09-03T03:37:01.111Z,0.00
2022-09-03T03:38:01.107Z,0.00
2022-09-03T03:39:01.096Z,0.00
2022-09-03T03:40:01.108Z,0.00
2022-09-03T03:41:01.067Z,0.00
2022-09-03T03:42:01.065Z,0.00
2022-09-03T03:43:01.047Z,0.00
2022-09-03T03:44:01.018Z,0.00
2022-09-03T03:45:01.019Z,0.00
2022-09-03T03:46:01.047Z,0.00
2022-09-03T03:47:01.005Z,0.00
2022-09-03T03:48:01.067Z,0.00
2022-09-03T03:49:00.976Z,0.00
2022-09-03T03:50:00.957Z,0.00
2022-09-03T03:51:00.964Z,0.00
2022-09-03T03:52:00.947Z,0.00
2022-09-03T03:53:00.938Z,0.00
2022-09-03T03:54:04.803Z,0.00
2022-09-03T03:55:00.908Z,0.00
2022-09-03T03:56:00.899Z,0.00
2022-09-03T03:57:00.881Z,0.00
2022-09-03T03:58:00.881Z,0.00
2022-09-03T03:59:00.885Z,0.00
2022-09-03T04:00:00.841Z,0.00
2022-09-03T04:01:00.859Z,0.00
2022-09-03T04:02:00.845Z,0.00
2022-09-03T04:03:00.851Z,0.00
2022-09-03T04:04:00.806Z,0.00
2022-09-03T04:05:00.806Z,0.00
2022-09-03T04:06:00.792Z,0.00
2022-09-03T04:07:00.765Z,0.00
2022-09-03T04:08:00.779Z,0.00
2022-09-03T04:09:00.751Z,0.00
2022-09-03T04:10:00.749Z,0.00
2022-09-03T04:11:00.740Z,0.00
2022-09-03T04:12:00.723Z,0.00
2022-09-03T04:13:00.738Z,0.00
2022-09-03T04:14:00.693Z,0.00
2022-09-03T04:15:00.711Z,0.00
2022-09-03T04:16:00.674Z,4.00
2022-09-03T04:17:00.701Z,4.00
2022-09-03T04:18:00.678Z,0.00
2022-09-03T04:19:00.644Z,0.00
2022-09-03T04:20:00.633Z,4.00
2022-09-03T04:21:00.629Z,0.00
2022-09-03T04:22:00.604Z,4.00
2022-09-03T04:23:00.614Z,0.00
2022-09-03T04:24:00.587Z,4.00
2022-09-03T04:25:00.583Z,4.00
2022-09-03T04:26:00.563Z,4.00
2022-09-03T04:27:00.546Z,4.00
2022-09-03T04:28:00.748Z,8.00
2022-09-03T04:29:00.526Z,12.00
2022-09-03T04:30:00.516Z,12.00
2022-09-03T04:31:00.580Z,12.00
2022-09-03T04:32:00.500Z,16.00
2022-09-03T04:33:00.498Z,20.00
2022-09-03T04:34:00.460Z,24.00
2022-09-03T04:35:00.469Z,28.00
2022-09-03T04:36:00.452Z,28.00
2022-09-03T04:37:00.444Z,32.00
2022-09-03T04:38:00.447Z,36.00
2022-09-03T04:39:00.410Z,44.00
2022-09-03T04:40:00.481Z,48.00
2022-09-03T04:41:00.406Z,52.00
2022-09-03T04:42:00.368Z,60.00
2022-09-03T04:43:00.367Z,72.00
2022-09-03T04:44:00.342Z,80.00
2022-09-03T04:45:00.338Z,92.00
2022-09-03T04:46:00.430Z,100.00
2022-09-03T04:47:00.330Z,112.00
2022-09-03T04:48:00.322Z,124.00
2022-09-03T04:49:00.291Z,136.00
2022-09-03T04:50:00.269Z,144.00
2022-09-03T04:51:00.270Z,160.00
2022-09-03T04:52:00.261Z,168.00
2022-09-03T04:53:03.462Z,176.00
2022-09-03T04:54:01.256Z,184.00
2022-09-03T04:55:00.219Z,196.00
2022-09-03T04:56:00.206Z,200.00
2022-09-03T04:57:00.192Z,208.00
2022-09-03T04:58:00.201Z,216.00
2022-09-03T04:59:00.180Z,224.00
2022-09-03T05:00:00.164Z,236.00
2022-09-03T05:01:00.222Z,244.00
2022-09-03T05:02:00.233Z,260.00
2022-09-03T05:03:00.130Z,272.00
2022-09-03T05:04:00.129Z,288.00
2022-09-03T05:05:00.093Z,300.00
2022-09-03T05:06:00.092Z,316.00
2022-09-03T05:07:00.073Z,336.00
2022-09-03T05:08:00.083Z,368.00
2022-09-03T05:09:00.056Z,400.00
2022-09-03T05:10:00.033Z,432.00
2022-09-03T05:11:00.024Z,460.00
2022-09-03T05:12:00.034Z,484.00
2022-09-03T05:13:00.004Z,508.00
2022-09-03T05:13:59.993Z,536.00
2022-09-03T05:14:59.976Z,564.00
2022-09-03T05:16:00.002Z,592.00
2022-09-03T05:17:00.001Z,628.00
2022-09-03T05:17:59.959Z,668.00
2022-09-03T05:18:59.928Z,712.00
2022-09-03T05:19:59.927Z,752.00
2022-09-03T05:20:59.924Z,784.00
2022-09-03T05:21:59.906Z,812.00
2022-09-03T05:22:59.897Z,844.00
2022-09-03T05:23:59.876Z,872.00
2022-09-03T05:24:59.866Z,900.00
2022-09-03T05:25:59.855Z,936.00
2022-09-03T05:26:59.841Z,964.00
2022-09-03T05:27:59.848Z,992.00
2022-09-03T05:28:59.821Z,1008.00
2022-09-03T05:29:59.808Z,1016.00
2022-09-03T05:30:59.813Z,1024.00
2022-09-03T05:31:59.818Z,1040.00
2022-09-03T05:32:59.790Z,1072.00
2022-09-03T05:33:59.753Z,1120.00
2022-09-03T05:34:59.749Z,1176.00
2022-09-03T05:35:59.732Z,1236.00
2022-09-03T05:36:59.728Z,1292.00
2022-09-03T05:37:59.729Z,1340.00
2022-09-03T05:38:59.705Z,1376.00
2022-09-03T05:39:59.727Z,1388.00
2022-09-03T05:40:59.680Z,1372.00
2022-09-03T05:41:59.661Z,1356.00
2022-09-03T05:42:59.670Z,1340.00
2022-09-03T05:43:59.850Z,1332.00
2022-09-03T05:44:59.629Z,1328.00
2022-09-03T05:45:59.652Z,1344.00
2022-09-03T05:46:59.607Z,1360.00
2022-09-03T05:47:59.628Z,1384.00
2022-09-03T05:48:59.580Z,1404.00
2022-09-03T05:49:59.563Z,1408.00
2022-09-03T05:50:59.554Z,1400.00
2022-09-03T05:51:59.542Z,1400.00
2022-09-03T05:52:59.534Z,1400.00
2022-09-03T05:53:59.527Z,1408.00
2022-09-03T05:54:59.504Z,1428.00
2022-09-03T05:55:59.483Z,1452.00
2022-09-03T05:56:59.473Z,1488.00
2022-09-03T05:57:59.497Z,1532.00
2022-09-03T05:58:59.468Z,1596.00
2022-09-03T05:59:59.434Z,1676.00
2022-09-03T06:00:59.437Z,1760.00
2022-09-03T06:02:00.353Z,1852.00
2022-09-03T06:02:59.455Z,1944.00
2022-09-03T06:03:59.396Z,2040.00
2022-09-03T06:04:59.378Z,2132.00
2022-09-03T06:05:59.378Z,2224.00
2022-09-03T06:06:59.347Z,2328.00
2022-09-03T06:07:59.406Z,2456.00
2022-09-03T06:08:59.337Z,2532.00
2022-09-03T06:09:59.338Z,2648.00
2022-09-03T06:10:59.325Z,2716.00
2022-09-03T06:12:00.022Z,2808.00
2022-09-03T06:12:59.305Z,2908.00
2022-09-03T06:13:59.270Z,3016.00
2022-09-03T06:14:59.285Z,3124.00
2022-09-03T06:15:59.297Z,3220.00
2022-09-03T06:16:59.280Z,3168.00
2022-09-03T06:17:59.247Z,3160.00
2022-09-03T06:18:59.667Z,3152.00
2022-09-03T06:19:59.204Z,3220.00
2022-09-03T06:20:59.203Z,3236.00
2022-09-03T06:21:59.193Z,3308.00
2022-09-03T06:22:59.178Z,3348.00
2022-09-03T06:23:59.655Z,3360.00
2022-09-03T06:24:59.140Z,3332.00
2022-09-03T06:26:04.457Z,3348.00
2022-09-03T06:27:00.116Z,3332.00
2022-09-03T06:27:59.131Z,3316.00
2022-09-03T06:28:59.107Z,3284.00
2022-09-03T06:29:59.079Z,3288.00
2022-09-03T06:30:59.092Z,3320.00
2022-09-03T06:31:59.097Z,3352.00
2022-09-03T06:32:59.061Z,3328.00
2022-09-03T06:34:03.822Z,3344.00
2022-09-03T06:35:00.026Z,3352.00
2022-09-03T06:35:59.013Z,3356.00
2022-09-03T06:36:58.994Z,3400.00
2022-09-03T06:37:59.033Z,3468.00
2022-09-03T06:38:58.982Z,3508.00
2022-09-03T06:39:59.009Z,3540.00
2022-09-03T06:40:58.955Z,3544.00
2022-09-03T06:41:58.953Z,3536.00
2022-09-03T06:42:58.944Z,3512.00
2022-09-03T06:43:58.924Z,3476.00
2022-09-03T06:44:58.913Z,3448.00
2022-09-03T06:45:58.915Z,3448.00
2022-09-03T06:46:58.884Z,3452.00
2022-09-03T06:47:58.885Z,3464.00
2022-09-03T06:48:58.878Z,3476.00
2022-09-03T06:49:58.845Z,3468.00
2022-09-03T06:50:58.850Z,3456.00
2022-09-03T06:51:58.826Z,3444.00
2022-09-03T06:52:58.835Z,3448.00
2022-09-03T06:53:58.811Z,3444.00
2022-09-03T06:54:58.813Z,3424.00
2022-09-03T06:55:58.767Z,3416.00
2022-09-03T06:56:58.779Z,3408.00
2022-09-03T06:57:58.778Z,3396.00
2022-09-03T06:58:58.742Z,3392.00
2022-09-03T06:59:58.742Z,3384.00
2022-09-03T07:00:59.073Z,3392.00
2022-09-03T07:01:58.851Z,3404.00
2022-09-03T07:02:58.728Z,3408.00
2022-09-03T07:03:58.699Z,3424.00
2022-09-03T07:04:58.678Z,3424.00
2022-09-03T07:05:58.661Z,3396.00
2022-09-03T07:06:58.667Z,3340.00
2022-09-03T07:07:58.648Z,3280.00
2022-09-03T07:08:58.629Z,3216.00
2022-09-03T07:09:58.631Z,3156.00
2022-09-03T07:10:58.611Z,3072.00
2022-09-03T07:11:58.599Z,2984.00
2022-09-03T07:12:58.611Z,2912.00
2022-09-03T07:13:58.576Z,2860.00
2022-09-03T07:14:58.562Z,2804.00
2022-09-03T07:15:58.572Z,2740.00
2022-09-03T07:16:58.569Z,2644.00
2022-09-03T07:17:58.541Z,2560.00
2022-09-03T07:18:58.522Z,2496.00
2022-09-03T07:19:58.513Z,2456.00
2022-09-03T07:20:58.493Z,2404.00
2022-09-03T07:21:58.502Z,2352.00
2022-09-03T07:22:58.495Z,2292.00
2022-09-03T07:23:58.453Z,2236.00
2022-09-03T07:24:58.446Z,2180.00
2022-09-03T07:25:58.446Z,2124.00
2022-09-03T07:26:58.450Z,2076.00
2022-09-03T07:27:58.405Z,2028.00
2022-09-03T07:28:58.422Z,1988.00
2022-09-03T07:29:58.374Z,1960.00
2022-09-03T07:30:58.382Z,1952.00
2022-09-03T07:31:58.416Z,1960.00
2022-09-03T07:32:58.362Z,1984.00
2022-09-03T07:33:58.344Z,2040.00
2022-09-03T07:34:58.333Z,2112.00
2022-09-03T07:35:58.315Z,2208.00
2022-09-03T07:36:58.305Z,2312.00
2022-09-03T07:37:58.297Z,2412.00
2022-09-03T07:38:58.280Z,2496.00
2022-09-03T07:39:58.338Z,2572.00
2022-09-03T07:40:58.257Z,2620.00
2022-09-03T07:41:58.286Z,2664.00
2022-09-03T07:42:58.217Z,2660.00
2022-09-03T07:43:58.217Z,2684.00
2022-09-03T07:44:58.207Z,2668.00
2022-09-03T07:45:58.201Z,2640.00
2022-09-03T07:46:58.260Z,2600.00
2022-09-03T07:47:58.179Z,2556.00
2022-09-03T07:48:58.192Z,2500.00
2022-09-03T07:49:58.168Z,2428.00
2022-09-03T07:50:58.148Z,2344.00
2022-09-03T07:51:58.149Z,2236.00
2022-09-03T07:52:58.099Z,2140.00
2022-09-03T07:53:58.129Z,2068.00
2022-09-03T07:54:58.090Z,2008.00
2022-09-03T07:55:58.071Z,1964.00
2022-09-03T07:56:58.071Z,1940.00
2022-09-03T07:57:58.072Z,1936.00
2022-09-03T07:58:58.031Z,1980.00
2022-09-03T07:59:58.037Z,2036.00
2022-09-03T08:00:58.056Z,2100.00
2022-09-03T08:01:58.040Z,2168.00
2022-09-03T08:02:58.004Z,2236.00
2022-09-03T08:03:58.030Z,2300.00
2022-09-03T08:04:57.977Z,2372.00
2022-09-03T08:05:57.971Z,2448.00
2022-09-03T08:06:58.005Z,2500.00
2022-09-03T08:07:57.958Z,2516.00
2022-09-03T08:09:00.864Z,2484.00
2022-09-03T08:09:58.924Z,2452.00
2022-09-03T08:10:57.938Z,2416.00
2022-09-03T08:11:57.907Z,2372.00
2022-09-03T08:12:57.941Z,2340.00
2022-09-03T08:13:57.872Z,2316.00
2022-09-03T08:14:57.889Z,2296.00
2022-09-03T08:15:57.920Z,2284.00
2022-09-03T08:16:57.881Z,2280.00
2022-09-03T08:18:03.450Z,2300.00
2022-09-03T08:18:58.814Z,2332.00
2022-09-03T08:19:57.806Z,2388.00
2022-09-03T08:20:57.815Z,2452.00
2022-09-03T08:21:57.796Z,2536.00
2022-09-03T08:22:57.785Z,2656.00
2022-09-03T08:23:57.767Z,2800.00
2022-09-03T08:24:57.755Z,2976.00
2022-09-03T08:25:57.737Z,3188.00
2022-09-03T08:26:57.756Z,3432.00
2022-09-03T08:27:57.715Z,3680.00
2022-09-03T08:28:57.708Z,3948.00
2022-09-03T08:29:57.723Z,4232.00
2022-09-03T08:30:57.687Z,4512.00
2022-09-03T08:31:59.609Z,4760.00
2022-09-03T08:32:57.667Z,4960.00
2022-09-03T08:33:57.655Z,5116.00
2022-09-03T08:34:57.627Z,5220.00
2022-09-03T08:35:57.649Z,5308.00
2022-09-03T08:36:57.608Z,5408.00
2022-09-03T08:37:57.629Z,5468.00
2022-09-03T08:38:57.581Z,5468.00
2022-09-03T08:39:57.714Z,5476.00
2022-09-03T08:40:57.559Z,5504.00
2022-09-03T08:41:57.586Z,5552.00
2022-09-03T08:42:57.538Z,5644.00
2022-09-03T08:43:57.529Z,5720.00
2022-09-03T08:44:58.514Z,5692.00
2022-09-03T08:45:57.511Z,5556.00
2022-09-03T08:46:57.555Z,5364.00
2022-09-03T08:47:57.485Z,5148.00
2022-09-03T08:48:57.471Z,4940.00
2022-09-03T08:49:57.467Z,4728.00
2022-09-03T08:50:57.445Z,4560.00
2022-09-03T08:51:57.462Z,4504.00
2022-09-03T08:52:57.441Z,4556.00
2022-09-03T08:53:57.434Z,4660.00
2022-09-03T08:54:57.403Z,4800.00
2022-09-03T08:55:57.392Z,4980.00
2022-09-03T08:56:57.383Z,5164.00
2022-09-03T08:57:57.364Z,5344.00
2022-09-03T08:58:57.363Z,5540.00
2022-09-03T08:59:57.341Z,5728.00
2022-09-03T09:00:57.333Z,5892.00
2022-09-03T09:01:57.410Z,6052.00
2022-09-03T09:02:57.345Z,6212.00
2022-09-03T09:03:57.297Z,6388.00
2022-09-03T09:04:57.284Z,6564.00
2022-09-03T09:05:57.262Z,6668.00
2022-09-03T09:06:57.336Z,6760.00
2022-09-03T09:07:57.248Z,6832.00
2022-09-03T09:08:57.262Z,6916.00
2022-09-03T09:09:57.219Z,7036.00
2022-09-03T09:10:57.230Z,7188.00
2022-09-03T09:11:57.217Z,7360.00
2022-09-03T09:12:57.186Z,7552.00
2022-09-03T09:13:57.184Z,7708.00
2022-09-03T09:14:57.166Z,7840.00
2022-09-03T09:15:57.172Z,7924.00
2022-09-03T09:16:57.156Z,7956.00
2022-09-03T09:17:57.129Z,7988.00
2022-09-03T09:18:57.126Z,8036.00
2022-09-03T09:19:57.099Z,8096.00
2022-09-03T09:20:57.137Z,8172.00
2022-09-03T09:21:57.357Z,8256.00
2022-09-03T09:22:57.076Z,8340.00
2022-09-03T09:23:57.078Z,8452.00
2022-09-03T09:24:57.059Z,8532.00
2022-09-03T09:25:57.040Z,8648.00
2022-09-03T09:26:57.029Z,8740.00
2022-09-03T09:27:57.019Z,8740.00
2022-09-03T09:28:57.024Z,8880.00
2022-09-03T09:29:56.990Z,8224.00
2022-09-03T09:30:57.101Z,7740.00
2022-09-03T09:31:56.981Z,7228.00
2022-09-03T09:32:56.959Z,6996.00
2022-09-03T09:33:56.961Z,6540.00
2022-09-03T09:34:56.949Z,6636.00
2022-09-03T09:35:56.975Z,5812.00
2022-09-03T09:36:56.931Z,5628.00
2022-09-03T09:37:56.915Z,5480.00
2022-09-03T09:38:56.913Z,5308.00
2022-09-03T09:39:56.950Z,5128.00
2022-09-03T09:40:56.872Z,5020.00
2022-09-03T09:41:56.890Z,5136.00
2022-09-03T09:42:56.843Z,5324.00
2022-09-03T09:43:56.844Z,5460.00
2022-09-03T09:44:56.814Z,5500.00
2022-09-03T09:45:56.862Z,5540.00
2022-09-03T09:46:56.865Z,5556.00
2022-09-03T09:47:56.793Z,5528.00
2022-09-03T09:48:56.774Z,5492.00
2022-09-03T09:49:56.786Z,5448.00
2022-09-03T09:50:56.795Z,5340.00
2022-09-03T09:51:56.745Z,5328.00
2022-09-03T09:52:59.156Z,5368.00
2022-09-03T09:53:56.736Z,5532.00
2022-09-03T09:54:56.726Z,5704.00
2022-09-03T09:55:56.720Z,6032.00
2022-09-03T09:56:56.697Z,6148.00
2022-09-03T09:57:56.687Z,6344.00
2022-09-03T09:58:56.667Z,6472.00
2022-09-03T09:59:56.669Z,6624.00
2022-09-03T10:00:56.659Z,6764.00
2022-09-03T10:01:56.683Z,6924.00
2022-09-03T10:02:56.683Z,6960.00
2022-09-03T10:03:56.608Z,6816.00
2022-09-03T10:04:56.599Z,6592.00
2022-09-03T10:05:56.619Z,6352.00
2022-09-03T10:06:56.589Z,6228.00
2022-09-03T10:07:56.568Z,6124.00
2022-09-03T10:08:56.563Z,5968.00
2022-09-03T10:09:56.561Z,5788.00
2022-09-03T10:10:56.550Z,5568.00
2022-09-03T10:11:57.258Z,5348.00
2022-09-03T10:12:56.530Z,5244.00
2022-09-03T10:13:56.499Z,5244.00
2022-09-03T10:14:56.488Z,5296.00
2022-09-03T10:15:56.527Z,5332.00
2022-09-03T10:16:56.481Z,5376.00
2022-09-03T10:17:56.441Z,5448.00
2022-09-03T10:18:56.453Z,5548.00
2022-09-03T10:19:56.432Z,5580.00
2022-09-03T10:20:56.422Z,5588.00
2022-09-03T10:21:56.423Z,5616.00
2022-09-03T10:22:57.459Z,5660.00
2022-09-03T10:23:56.471Z,5800.00
2022-09-03T10:24:56.384Z,6060.00
2022-09-03T10:25:56.383Z,6348.00
2022-09-03T10:26:56.381Z,6672.00
2022-09-03T10:27:56.334Z,6936.00
2022-09-03T10:28:56.982Z,7176.00
2022-09-03T10:29:56.336Z,7364.00
2022-09-03T10:30:56.401Z,7556.00
2022-09-03T10:31:56.328Z,7756.00
2022-09-03T10:32:56.297Z,7960.00
2022-09-03T10:33:56.281Z,8196.00
2022-09-03T10:34:56.286Z,8308.00
2022-09-03T10:35:56.255Z,8300.00
2022-09-03T10:36:56.249Z,8252.00
2022-09-03T10:37:56.544Z,8204.00
2022-09-03T10:38:56.215Z,8164.00
2022-09-03T10:39:56.256Z,8044.00
2022-09-03T10:40:56.217Z,7864.00
2022-09-03T10:41:56.252Z,7764.00
2022-09-03T10:42:56.173Z,7768.00
2022-09-03T10:43:56.178Z,7852.00
2022-09-03T10:44:56.177Z,8004.00
2022-09-03T10:45:56.234Z,8208.00
2022-09-03T10:46:56.130Z,8392.00
2022-09-03T10:47:56.158Z,8516.00
2022-09-03T10:48:56.099Z,8568.00
2022-09-03T10:49:56.090Z,8540.00
2022-09-03T10:50:56.120Z,8436.00
2022-09-03T10:51:56.096Z,8464.00
2022-09-03T10:52:56.051Z,8552.00
2022-09-03T10:53:56.049Z,8604.00
2022-09-03T10:54:56.045Z,8600.00
2022-09-03T10:55:56.024Z,8548.00
2022-09-03T10:56:56.030Z,8488.00
2022-09-03T10:57:56.005Z,8444.00
2022-09-03T10:58:55.982Z,8500.00
2022-09-03T10:59:55.977Z,8660.00
2022-09-03T11:00:56.021Z,8860.00
2022-09-03T11:01:56.026Z,9032.00
2022-09-03T11:02:55.986Z,9064.00
2022-09-03T11:03:55.969Z,9048.00
2022-09-03T11:04:55.913Z,9032.00
2022-09-03T11:05:55.924Z,9012.00
2022-09-03T11:06:55.912Z,9028.00
2022-09-03T11:07:55.883Z,9052.00
2022-09-03T11:08:55.876Z,9068.00
2022-09-03T11:09:55.870Z,9048.00
2022-09-03T11:10:55.854Z,8968.00
2022-09-03T11:11:55.835Z,8788.00
2022-09-03T11:12:55.877Z,8560.00
2022-09-03T11:13:55.816Z,8384.00
2022-09-03T11:14:55.795Z,8264.00
2022-09-03T11:15:55.879Z,8304.00
2022-09-03T11:16:55.776Z,8460.00
2022-09-03T11:17:55.771Z,8796.00
2022-09-03T11:18:55.759Z,9176.00
2022-09-03T11:19:55.804Z,10416.00
2022-09-03T11:20:55.747Z,10084.00
2022-09-03T11:21:55.732Z,10264.00
2022-09-03T11:22:55.708Z,10356.00
2022-09-03T11:23:55.708Z,10424.00
2022-09-03T11:24:55.687Z,10444.00
2022-09-03T11:25:55.693Z,10632.00
2022-09-03T11:26:55.662Z,10576.00
2022-09-03T11:27:56.699Z,11020.00
2022-09-03T11:28:55.636Z,10216.00
2022-09-03T11:29:55.640Z,9676.00
2022-09-03T11:30:55.681Z,9208.00
2022-09-03T11:31:55.600Z,8788.00
2022-09-03T11:32:55.949Z,8552.00
2022-09-03T11:33:55.590Z,8576.00
2022-09-03T11:34:55.579Z,8492.00
2022-09-03T11:35:55.572Z,8280.00
2022-09-03T11:36:55.593Z,8364.00
2022-09-03T11:37:55.533Z,7704.00
2022-09-03T11:38:55.552Z,7644.00
2022-09-03T11:39:56.527Z,7704.00
2022-09-03T11:40:55.521Z,8064.00
2022-09-03T11:41:55.494Z,8024.00
2022-09-03T11:42:55.494Z,8064.00
2022-09-03T11:43:55.476Z,8136.00
2022-09-03T11:44:55.483Z,7744.00
2022-09-03T11:45:55.517Z,7396.00
2022-09-03T11:46:55.455Z,7036.00
2022-09-03T11:47:55.439Z,7188.00
2022-09-03T11:48:55.429Z,7044.00
2022-09-03T11:49:55.395Z,5732.00
2022-09-03T11:50:55.424Z,6656.00
2022-09-03T11:51:55.418Z,6296.00
2022-09-03T11:52:55.367Z,6112.00
2022-09-03T11:53:55.349Z,5728.00
2022-09-03T11:54:55.357Z,5300.00
2022-09-03T11:55:55.355Z,4492.00
2022-09-03T11:56:55.330Z,3836.00
2022-09-03T11:57:55.318Z,4348.00
2022-09-03T11:58:55.307Z,4380.00
2022-09-03T11:59:55.299Z,4308.00
2022-09-03T12:00:55.293Z,4244.00
2022-09-03T12:01:55.279Z,4240.00
2022-09-03T12:02:58.763Z,4208.00
2022-09-03T12:03:55.267Z,4172.00
2022-09-03T12:04:55.839Z,4176.00
2022-09-03T12:05:55.218Z,4172.00
2022-09-03T12:06:55.211Z,4160.00
2022-09-03T12:07:55.222Z,4128.00
2022-09-03T12:08:55.181Z,4096.00
2022-09-03T12:09:55.261Z,4156.00
2022-09-03T12:10:55.162Z,4180.00
2022-09-03T12:11:55.171Z,4096.00
2022-09-03T12:12:55.186Z,4124.00
2022-09-03T12:13:55.132Z,4004.00
2022-09-03T12:14:55.143Z,4104.00
2022-09-03T12:15:55.184Z,4148.00
2022-09-03T12:16:55.146Z,4112.00
2022-09-03T12:17:55.132Z,4092.00
2022-09-03T12:18:55.073Z,4068.00
2022-09-03T12:19:55.064Z,4068.00
2022-09-03T12:20:55.065Z,4064.00
2022-09-03T12:21:55.052Z,4048.00
2022-09-03T12:22:55.027Z,4056.00
2022-09-03T12:23:58.167Z,4076.00
2022-09-03T12:24:55.009Z,4012.00
2022-09-03T12:25:55.068Z,4016.00
2022-09-03T12:26:54.978Z,4000.00
2022-09-03T12:27:54.987Z,3996.00
2022-09-03T12:28:54.958Z,4000.00
2022-09-03T12:29:54.957Z,4004.00
2022-09-03T12:30:55.022Z,3984.00
2022-09-03T12:31:54.928Z,4028.00